Time;durP1;ratioP1;P1;durP2;ratioP2;P2;SDS_P1;SDS_P2;PMS_P1;PMS_P2;Temp;Humidity;BMP_temperature;BMP_pressure;BME280_temperature;BME280_humidity;BME280_pressure;Samples;Min_cycle;Max_cycle;Signal;HPM_P1;HPM_P2
2022/06/15 00:00:57;;;;;;;0.70;0.70;;;17.30;59.60;16.80;98415.00;;;;5075920;28;20195;-76
2022/06/15 00:03:25;;;;;;;4.23;0.67;;;17.30;60.10;16.80;98416.00;;;;5093321;28;20202;-76
2022/06/15 00:05:52;;;;;;;0.87;0.87;;;17.30;60.40;16.80;98408.00;;;;5075542;28;20198;-76
2022/06/15 00:08:19;;;;;;;1.00;1.00;;;17.20;60.70;16.60;98405.00;;;;5093141;28;20223;-76
2022/06/15 00:10:46;;;;;;;0.60;0.60;;;17.20;60.80;16.60;98402.00;;;;5093366;28;20198;-76
2022/06/15 00:13:17;;;;;;;0.60;0.60;;;17.20;61.60;16.50;98396.00;;;;5093353;28;20210;-76
2022/06/15 00:15:48;;;;;;;0.60;0.60;;;17.10;61.80;16.30;98402.00;;;;5093849;28;20294;-76
2022/06/15 00:18:16;;;;;;;0.60;0.60;;;17.00;62.60;16.30;98407.00;;;;5101122;28;20206;-76
2022/06/15 00:20:43;;;;;;;0.80;0.80;;;17.00;63.00;16.60;98404.00;;;;5099142;28;20232;-75
2022/06/15 00:23:10;;;;;;;0.80;0.80;;;17.00;61.80;16.60;98410.00;;;;5095148;28;20198;-76
2022/06/15 00:25:37;;;;;;;0.80;0.80;;;17.00;61.60;16.50;98396.00;;;;5093279;28;20195;-76
2022/06/15 00:28:06;;;;;;;0.93;0.93;;;17.00;61.10;16.30;98408.00;;;;5075607;28;20678;-75
2022/06/15 00:30:32;;;;;;;1.40;1.37;;;16.80;60.70;16.30;98405.00;;;;5078926;28;20293;-75
2022/06/15 00:32:59;;;;;;;1.00;1.00;;;16.80;61.80;16.20;98413.00;;;;5096525;28;20214;-76
2022/06/15 00:35:26;;;;;;;0.60;0.60;;;16.80;61.90;16.30;98402.00;;;;5096560;28;20269;-76
2022/06/15 00:37:52;;;;;;;2.17;1.27;;;16.80;62.70;16.30;98398.00;;;;5096452;28;20285;-76
2022/06/15 00:40:19;;;;;;;0.97;0.93;;;16.70;62.30;16.30;98394.00;;;;5096473;28;20202;-76
2022/06/15 00:42:46;;;;;;;1.00;1.00;;;16.80;62.20;16.30;98386.00;;;;5096827;28;20237;-76
2022/06/15 00:45:12;;;;;;;1.30;1.23;;;16.70;62.00;16.10;98385.00;;;;5096636;28;20202;-75
2022/06/15 00:47:45;;;;;;;0.50;0.50;;;16.70;62.40;16.20;98387.00;;;;5096334;28;20228;-76
2022/06/15 00:50:20;;;;;;;0.70;0.70;;;16.70;62.00;16.00;98378.00;;;;5096437;28;20206;-76
2022/06/15 00:52:53;;;;;;;0.50;0.50;;;16.50;61.20;15.80;98375.00;;;;5096364;28;20279;-76
2022/06/15 00:55:25;;;;;;;0.70;0.70;;;16.40;61.30;15.80;98375.00;;;;5096208;28;20675;-75
2022/06/15 00:57:52;;;;;;;1.43;1.37;;;16.30;61.70;15.70;98369.00;;;;5096490;28;20275;-76
2022/06/15 01:00:23;;;;;;;0.93;0.93;;;16.30;62.00;15.70;98365.00;;;;5096225;28;20195;-74
2022/06/15 01:02:49;;;;;;;0.63;0.63;;;16.30;62.60;15.80;98362.00;;;;5096375;28;20179;-75
2022/06/15 01:05:22;;;;;;;0.97;0.97;;;16.20;62.80;15.70;98355.00;;;;5096257;28;20494;-75
2022/06/15 01:08:15;;;;;;;1.23;1.10;;;16.30;63.60;15.70;98356.00;;;;5078908;28;20632;-76
2022/06/15 01:11:18;;;;;;;0.83;0.83;;;16.30;64.10;15.60;98351.00;;;;5096354;28;20231;-76
2022/06/15 01:14:47;;;;;;;0.87;0.87;;;16.10;63.50;15.60;98351.00;;;;5096164;28;20285;-76
2022/06/15 01:17:33;;;;;;;0.97;0.97;;;16.10;63.40;15.50;98363.00;;;;5100611;28;20217;-75
2022/06/15 01:20:31;;;;;;;1.07;1.07;;;16.00;62.60;15.50;98359.00;;;;5096096;28;20194;-76
2022/06/15 01:24:20;;;;;;;0.90;0.90;;;16.00;62.30;15.40;98361.00;;;;5095944;28;20286;-76
2022/06/15 01:27:24;;;;;;;0.70;0.70;;;16.00;62.30;15.40;98351.00;;;;5095775;28;20263;-76
2022/06/15 01:30:25;;;;;;;0.60;0.60;;;15.90;62.90;15.40;98361.00;;;;5095792;28;20182;-76
2022/06/15 01:33:14;;;;;;;0.93;0.93;;;16.00;63.00;15.40;98355.00;;;;5095781;28;20243;-76
2022/06/15 01:35:57;;;;;;;1.60;1.40;;;15.90;65.00;15.30;98351.00;;;;5095605;28;20654;-76
2022/06/15 01:38:36;;;;;;;0.73;0.73;;;15.90;65.60;15.20;98355.00;;;;5095525;28;20649;-74
2022/06/15 01:41:14;;;;;;;2.90;1.60;;;15.80;65.60;15.30;98355.00;;;;5095495;28;20343;-76
2022/06/15 01:43:49;;;;;;;0.63;0.63;;;15.80;65.20;15.30;98340.00;;;;5095740;28;20666;-76
2022/06/15 01:46:17;;;;;;;1.10;1.10;;;15.80;64.90;15.20;98354.00;;;;5095693;28;20195;-75
2022/06/15 01:48:46;;;;;;;0.90;0.90;;;15.80;65.10;15.30;98361.00;;;;5095507;28;20230;-76
2022/06/15 01:51:21;;;;;;;0.63;0.63;;;15.80;65.60;15.20;98341.00;;;;5095586;28;20645;-75
2022/06/15 01:53:55;;;;;;;0.90;0.90;;;15.70;65.50;15.20;98358.00;;;;5095288;28;20255;-76
2022/06/15 01:56:28;;;;;;;0.60;0.60;;;15.80;65.90;15.20;98345.00;;;;5095433;28;20267;-75
2022/06/15 01:59:01;;;;;;;0.97;0.97;;;15.80;65.90;15.10;98347.00;;;;5095238;28;20332;-74
2022/06/15 02:01:40;;;;;;;0.80;0.80;;;15.70;65.10;15.10;98351.00;;;;5095180;28;20231;-76
2022/06/15 02:04:22;;;;;;;0.80;0.80;;;15.60;65.80;15.10;98351.00;;;;5095337;28;20213;-76
2022/06/15 02:07:04;;;;;;;18.93;1.67;;;15.60;66.50;15.00;98355.00;;;;5095222;28;20525;-74
2022/06/15 02:09:40;;;;;;;0.70;0.70;;;15.60;66.30;14.90;98353.00;;;;5095038;28;20214;-74
2022/06/15 02:12:09;;;;;;;1.17;0.80;;;15.50;66.50;14.90;98355.00;;;;5095137;28;20314;-76
2022/06/15 02:14:43;;;;;;;0.80;0.80;;;15.50;66.50;14.90;98351.00;;;;5095077;28;20225;-76
2022/06/15 02:17:18;;;;;;;0.80;0.80;;;15.40;66.60;14.90;98356.00;;;;5095266;28;20197;-76
2022/06/15 02:19:54;;;;;;;1.80;1.07;;;15.40;67.10;15.00;98350.00;;;;5077124;28;20214;-76
2022/06/15 02:22:26;;;;;;;1.17;1.07;;;15.40;66.00;14.80;98343.00;;;;5094775;28;20224;-76
2022/06/15 02:24:57;;;;;;;0.67;0.67;;;15.40;65.70;14.80;98330.00;;;;5094949;28;20207;-76
2022/06/15 02:27:26;;;;;;;1.53;1.43;;;15.30;65.90;14.80;98351.00;;;;5094701;28;20226;-75
2022/06/15 02:30:00;;;;;;;1.23;1.23;;;15.30;66.20;14.80;98342.00;;;;5094938;28;20633;-75
2022/06/15 02:32:28;;;;;;;3.17;1.00;;;15.30;66.70;14.80;98346.00;;;;5095033;28;20697;-75
2022/06/15 02:34:57;;;;;;;1.47;1.37;;;15.30;66.30;14.70;98335.00;;;;5094531;28;20309;-76
2022/06/15 02:37:23;;;;;;;0.70;0.70;;;15.20;65.60;14.70;98335.00;;;;5094658;28;20630;-73
2022/06/15 02:39:50;;;;;;;1.60;1.50;;;15.10;66.60;14.50;98333.00;;;;5094903;28;20194;-76
2022/06/15 02:42:27;;;;;;;0.60;0.60;;;15.00;66.20;14.50;98300.00;;;;5094748;28;20187;-76
2022/06/15 02:44:59;;;;;;;1.00;1.00;;;15.00;67.00;14.40;98325.00;;;;5094720;28;20199;-76
2022/06/15 02:47:33;;;;;;;0.90;0.90;;;15.00;67.00;14.60;98335.00;;;;5094454;28;20226;-76
2022/06/15 02:50:01;;;;;;;1.20;1.20;;;15.00;67.00;14.50;98330.00;;;;5094541;28;20277;-76
2022/06/15 02:52:34;;;;;;;1.33;1.03;;;15.00;66.90;14.50;98315.00;;;;5093628;28;20278;-76
2022/06/15 02:55:01;;;;;;;0.50;0.50;;;15.00;67.20;14.30;98329.00;;;;5094746;28;20331;-76
2022/06/15 02:57:28;;;;;;;0.70;0.70;;;14.90;67.30;14.30;98326.00;;;;5094530;28;20198;-75
2022/06/15 02:59:55;;;;;;;1.17;1.00;;;14.80;67.60;14.30;98326.00;;;;5094462;28;20187;-76
2022/06/15 03:02:22;;;;;;;0.77;0.77;;;14.80;68.00;14.30;98330.00;;;;5094287;28;20191;-76
2022/06/15 03:04:50;;;;;;;0.90;0.90;;;14.80;67.80;14.30;98322.00;;;;5094474;28;20289;-76
2022/06/15 03:07:19;;;;;;;1.37;1.37;;;14.80;68.40;14.30;98326.00;;;;5094149;28;20226;-77
2022/06/15 03:09:46;;;;;;;0.63;0.63;;;14.80;67.60;14.20;98330.00;;;;5094065;28;20716;-77
2022/06/15 03:12:12;;;;;;;0.80;0.80;;;14.80;68.10;14.50;98332.00;;;;5076434;28;20301;-77
2022/06/15 03:14:39;;;;;;;1.20;1.20;;;14.90;67.60;14.30;98330.00;;;;5094104;28;20222;-77
2022/06/15 03:17:08;;;;;;;1.40;1.30;;;14.90;67.50;14.40;98331.00;;;;5094053;28;20225;-76
2022/06/15 03:19:34;;;;;;;0.90;0.90;;;14.80;67.10;14.30;98325.00;;;;5094027;28;20699;-76
2022/06/15 03:22:04;;;;;;;0.80;0.80;;;14.80;67.20;14.30;98324.00;;;;5093993;28;20527;-77
2022/06/15 03:24:30;;;;;;;1.53;1.43;;;14.80;67.80;14.20;98314.00;;;;5094023;28;20309;-77
2022/06/15 03:26:59;;;;;;;1.43;1.10;;;14.80;67.30;14.20;98314.00;;;;5093933;28;20230;-77
2022/06/15 03:29:26;;;;;;;0.80;0.80;;;14.80;67.70;14.30;98312.00;;;;5093908;28;20225;-76
2022/06/15 03:31:52;;;;;;;2.13;1.37;;;14.70;68.20;14.30;98320.00;;;;5094132;28;20268;-77
2022/06/15 03:34:19;;;;;;;1.17;1.17;;;14.80;68.00;14.30;98319.00;;;;5093697;28;20677;-77
2022/06/15 03:36:45;;;;;;;0.60;0.60;;;14.70;67.70;14.10;98319.00;;;;5093817;28;20322;-76
2022/06/15 03:39:16;;;;;;;1.50;1.40;;;14.70;67.80;14.20;98318.00;;;;5093728;28;20198;-75
2022/06/15 03:41:43;;;;;;;0.67;0.67;;;14.70;67.50;14.20;98310.00;;;;5093911;28;20209;-77
2022/06/15 03:44:10;;;;;;;1.23;1.13;;;14.70;67.20;14.10;98308.00;;;;5093731;28;20209;-77
2022/06/15 03:46:37;;;;;;;0.63;0.63;;;14.60;66.70;14.10;98317.00;;;;5093879;28;20201;-77
2022/06/15 03:49:03;;;;;;;1.17;1.17;;;14.70;67.00;14.10;98325.00;;;;5093538;28;20534;-76
2022/06/15 03:51:30;;;;;;;0.80;0.80;;;14.60;66.50;14.10;98328.00;;;;5093866;28;20580;-77
2022/06/15 03:53:59;;;;;;;0.97;0.97;;;14.60;66.90;14.10;98328.00;;;;5093563;28;20309;-77
2022/06/15 03:56:47;;;;;;;1.40;1.23;;;14.60;67.40;14.20;98323.00;;;;5093539;28;20195;-74
2022/06/15 03:59:16;;;;;;;0.90;0.90;;;14.60;66.90;14.20;98331.00;;;;5093582;28;20186;-74
2022/06/15 04:01:43;;;;;;;1.13;1.13;;;14.70;66.60;14.20;98329.00;;;;5093638;28;20199;-74
2022/06/15 04:04:09;;;;;;;0.80;0.80;;;14.70;67.30;14.10;98325.00;;;;5097046;28;20191;-74
2022/06/15 04:06:38;;;;;;;1.00;1.00;;;14.60;66.50;14.20;98326.00;;;;5096994;28;20226;-74
2022/06/15 04:09:04;;;;;;;1.00;1.00;;;14.70;66.80;14.10;98321.00;;;;5097070;28;20249;-74
2022/06/15 04:14:16;;;;;;;2.00;1.10;;;14.70;67.10;14.30;98332.00;;;;5096860;28;20228;-77
2022/06/15 04:16:43;;;;;;;0.63;0.63;;;14.70;66.90;14.20;98338.00;;;;5096915;28;20195;-77
2022/06/15 04:19:11;;;;;;;0.90;0.90;;;14.70;66.40;14.30;98333.00;;;;5096849;28;20282;-77
2022/06/15 04:21:38;;;;;;;1.00;1.00;;;14.80;66.40;14.30;98341.00;;;;5096782;28;20652;-77
2022/06/15 04:24:07;;;;;;;1.87;1.77;;;14.80;66.80;14.30;98343.00;;;;5096901;28;20206;-75
2022/06/15 04:26:33;;;;;;;2.30;2.20;;;14.80;66.10;14.20;98339.00;;;;5096740;28;20218;-75
2022/06/15 04:29:02;;;;;;;0.93;0.93;;;14.80;66.10;14.20;98335.00;;;;5096857;28;20231;-74
2022/06/15 04:31:31;;;;;;;0.80;0.80;;;14.80;67.10;14.30;98346.00;;;;5096758;28;20273;-76
2022/06/15 04:34:00;;;;;;;0.83;0.83;;;14.80;67.30;14.40;98345.00;;;;5096512;28;20279;-76
2022/06/15 04:36:29;;;;;;;3.70;1.17;;;14.80;66.90;14.40;98308.00;;;;5096474;28;20602;-76
2022/06/15 04:38:56;;;;;;;1.00;1.00;;;14.90;66.30;14.40;98348.00;;;;5078924;28;20197;-77
2022/06/15 04:41:22;;;;;;;0.50;0.50;;;14.90;66.50;14.40;98339.00;;;;5097206;28;20199;-77
2022/06/15 04:43:49;;;;;;;0.70;0.70;;;14.90;66.90;14.40;98345.00;;;;5096535;28;20209;-76
2022/06/15 04:46:18;;;;;;;1.17;1.13;;;14.90;68.00;14.40;98345.00;;;;5096444;28;20285;-76
2022/06/15 04:48:46;;;;;;;1.20;1.20;;;14.90;67.20;14.50;98342.00;;;;5096473;28;20222;-76
2022/06/15 04:51:15;;;;;;;0.80;0.80;;;15.00;67.20;14.60;98349.00;;;;5096584;28;20195;-76
2022/06/15 04:53:44;;;;;;;0.80;0.80;;;15.10;66.80;14.70;98341.00;;;;5097047;28;20231;-76
2022/06/15 04:56:12;;;;;;;1.57;1.47;;;15.10;67.40;14.80;98345.00;;;;5096554;28;20689;-76
2022/06/15 04:58:40;;;;;;;0.87;0.87;;;15.30;66.90;14.80;98345.00;;;;5096320;28;20273;-75
2022/06/15 05:01:07;;;;;;;1.47;1.37;;;15.30;66.90;14.80;98352.00;;;;5096331;28;20250;-76
2022/06/15 05:03:36;;;;;;;0.63;0.63;;;15.30;67.70;14.90;98344.00;;;;5096153;28;20653;-76
2022/06/15 05:06:10;;;;;;;1.80;1.70;;;15.40;67.70;15.00;98349.00;;;;5078422;28;20289;-77
2022/06/15 05:08:37;;;;;;;1.23;1.23;;;15.50;68.10;15.10;98344.00;;;;5096040;28;20734;-76
2022/06/15 05:11:04;;;;;;;0.73;0.73;;;15.60;67.60;15.20;98348.00;;;;5095965;28;20220;-74
2022/06/15 05:13:30;;;;;;;1.23;1.17;;;15.60;66.90;15.30;98352.00;;;;5095575;28;20278;-76
2022/06/15 05:16:00;;;;;;;0.83;0.83;;;15.70;66.30;15.30;98346.00;;;;5077832;28;20289;-76
2022/06/15 05:18:27;;;;;;;0.77;0.77;;;15.80;66.50;15.40;98346.00;;;;5096086;28;20819;-76
2022/06/15 05:20:53;;;;;;;1.00;1.00;;;15.90;67.00;15.50;98355.00;;;;5078021;28;20325;-76
2022/06/15 05:23:20;;;;;;;0.97;0.97;;;16.00;67.40;15.60;98350.00;;;;5095911;28;20198;-77
2022/06/15 05:25:49;;;;;;;1.13;1.13;;;16.10;67.40;15.70;98336.00;;;;5095815;28;20205;-75
2022/06/15 05:28:16;;;;;;;1.60;1.50;;;16.20;68.90;15.70;98340.00;;;;5095706;28;20281;-77
2022/06/15 05:30:45;;;;;;;0.97;0.97;;;16.20;68.40;15.60;98345.00;;;;5096183;28;20191;-76
2022/06/15 05:33:12;;;;;;;1.10;1.00;;;16.20;70.30;15.60;98340.00;;;;5102037;28;20219;-77
2022/06/15 05:35:38;;;;;;;0.80;0.80;;;16.10;71.00;15.70;98344.00;;;;5102316;28;20195;-77
2022/06/15 05:38:05;;;;;;;2.17;0.83;;;16.20;71.50;15.80;98342.00;;;;5098221;28;20290;-75
2022/06/15 05:40:32;;;;;;;1.00;1.00;;;16.30;71.30;16.00;98335.00;;;;5095568;28;20219;-77
2022/06/15 05:42:59;;;;;;;1.43;1.33;;;16.50;70.80;16.10;98335.00;;;;5095559;28;20274;-76
2022/06/15 05:45:25;;;;;;;4.27;1.33;;;16.50;70.30;16.30;98333.00;;;;5095524;28;20244;-77
2022/06/15 05:47:54;;;;;;;0.83;0.83;;;16.70;67.70;16.40;98334.00;;;;5095481;28;20263;-78
2022/06/15 05:50:20;;;;;;;0.87;0.87;;;16.80;66.50;16.50;98330.00;;;;5095466;28;20257;-77
2022/06/15 05:52:47;;;;;;;0.57;0.57;;;16.90;65.40;16.60;98324.00;;;;5095321;28;20375;-78
2022/06/15 05:55:13;;;;;;;1.03;1.03;;;17.10;63.80;16.80;98329.00;;;;5095510;28;20319;-77
2022/06/15 05:57:40;;;;;;;1.03;1.03;;;17.20;62.30;16.90;98328.00;;;;5095380;28;20526;-77
2022/06/15 06:00:11;;;;;;;3.30;1.23;;;17.30;61.80;17.00;98329.00;;;;5095311;28;20241;-77
2022/06/15 06:02:40;;;;;;;1.13;1.13;;;17.50;62.70;17.10;98329.00;;;;5095396;28;20255;-76
2022/06/15 06:05:08;;;;;;;0.77;0.77;;;17.60;62.70;17.20;98334.00;;;;5095183;28;20209;-75
2022/06/15 06:07:35;;;;;;;0.80;0.80;;;17.70;63.40;17.20;98330.00;;;;5095178;28;20278;-77
2022/06/15 06:10:01;;;;;;;1.17;1.17;;;17.80;64.60;17.40;98327.00;;;;5095108;28;20684;-77
2022/06/15 06:12:30;;;;;;;1.27;1.27;;;17.90;64.00;17.50;98331.00;;;;5077259;28;20237;-78
2022/06/15 06:14:57;;;;;;;5.73;1.83;;;18.00;65.00;17.60;98334.00;;;;5095079;28;20664;-77
2022/06/15 06:17:24;;;;;;;0.90;0.90;;;18.00;64.00;17.70;98324.00;;;;5095077;28;20294;-77
2022/06/15 06:19:52;;;;;;;1.33;1.33;;;18.20;65.00;17.80;98327.00;;;;5094931;28;20261;-76
2022/06/15 06:22:19;;;;;;;1.80;1.53;;;18.20;64.20;17.90;98335.00;;;;5094784;28;20271;-81
2022/06/15 06:24:45;;;;;;;1.10;1.10;;;18.40;64.10;18.00;98340.00;;;;5095059;28;20270;-77
2022/06/15 06:27:15;;;;;;;2.30;1.13;;;18.50;64.00;18.10;98314.00;;;;5093689;28;20199;-79
2022/06/15 06:29:44;;;;;;;1.03;1.03;;;18.50;63.10;18.20;98335.00;;;;5094693;28;20299;-76
2022/06/15 06:32:15;;;;;;;0.70;0.70;;;18.60;62.30;18.30;98332.00;;;;5094652;28;20226;-78
2022/06/15 06:34:41;;;;;;;5.20;2.70;;;18.70;62.20;18.30;98325.00;;;;5094693;28;20248;-79
2022/06/15 06:37:12;;;;;;;0.97;0.63;;;18.80;61.50;18.40;98330.00;;;;5076744;28;20641;-78
2022/06/15 06:39:39;;;;;;;1.20;1.13;;;18.90;60.80;18.50;98329.00;;;;5094011;28;20653;-79
2022/06/15 06:42:06;;;;;;;1.13;0.73;;;19.00;60.20;18.60;98325.00;;;;5094707;28;20637;-84
2022/06/15 06:44:36;;;;;;;1.73;1.63;;;19.10;60.70;18.70;98330.00;;;;5094512;28;20310;-80
2022/06/15 06:47:07;;;;;;;1.07;1.07;;;19.20;60.20;18.80;98342.00;;;;5094628;28;20198;-81
2022/06/15 06:49:36;;;;;;;1.27;1.23;;;19.30;60.00;19.00;98303.00;;;;5094643;28;20219;-81
2022/06/15 06:52:03;;;;;;;0.73;0.73;;;19.40;59.10;19.00;98339.00;;;;5094304;28;20392;-80
2022/06/15 06:54:31;;;;;;;1.27;1.27;;;19.50;57.90;19.10;98340.00;;;;5094428;28;20187;-80
2022/06/15 06:57:00;;;;;;;1.10;1.10;;;19.60;57.30;19.20;98338.00;;;;5094548;28;20627;-79
2022/06/15 06:59:27;;;;;;;0.73;0.73;;;19.70;57.20;19.40;98337.00;;;;5094361;28;20224;-78
2022/06/15 07:01:53;;;;;;;3.87;1.53;;;19.80;56.40;19.50;98340.00;;;;5094356;28;20598;-82
2022/06/15 07:04:22;;;;;;;0.57;0.57;;;19.90;55.40;19.50;98339.00;;;;5094251;28;20230;-79
2022/06/15 07:06:50;;;;;;;12.17;1.63;;;20.00;55.70;19.60;98338.00;;;;5094451;28;20214;-79
2022/06/15 07:09:17;;;;;;;1.27;1.23;;;20.00;55.40;19.60;98342.00;;;;5094266;28;20250;-78
2022/06/15 07:11:45;;;;;;;0.83;0.83;;;20.10;55.10;19.70;98332.00;;;;5094222;28;20290;-79
2022/06/15 07:14:12;;;;;;;1.20;1.10;;;;;19.90;98336.00;;;;5094090;28;20201;-78
2022/06/15 07:16:42;;;;;;;0.67;0.67;;;;;20.00;98333.00;;;;5093942;28;20210;-82
2022/06/15 07:19:09;;;;;;;0.67;0.67;;;20.30;48.80;20.00;98334.00;;;;5094152;28;20303;-80
2022/06/15 07:21:38;;;;;;;1.20;1.07;;;20.50;49.00;20.10;98333.00;;;;5094082;28;20285;-82
2022/06/15 07:24:07;;;;;;;1.20;1.20;;;20.50;48.70;20.20;98333.00;;;;5093972;28;20317;-79
2022/06/15 07:26:41;;;;;;;0.47;0.47;;;20.60;48.80;20.20;98332.00;;;;5094012;28;20668;-80
2022/06/15 07:29:13;;;;;;;0.90;0.90;;;20.60;47.20;20.30;98336.00;;;;5093757;28;20251;-78
2022/06/15 07:31:43;;;;;;;0.70;0.70;;;20.70;47.40;20.60;98339.00;;;;5093889;28;20286;-78
2022/06/15 07:34:11;;;;;;;0.70;0.70;;;20.80;46.50;20.60;98339.00;;;;5094016;28;20210;-78
2022/06/15 07:36:46;;;;;;;0.93;0.93;;;21.00;44.90;20.70;98335.00;;;;5093703;28;20676;-81
2022/06/15 07:39:14;;;;;;;0.50;0.50;;;21.10;45.70;20.80;98342.00;;;;5093931;28;20649;-78
2022/06/15 07:41:41;;;;;;;1.40;1.40;;;21.20;43.70;20.90;98346.00;;;;5093695;28;20206;-83
2022/06/15 07:44:11;;;;;;;1.13;1.03;;;21.30;44.00;21.00;98323.00;;;;5093764;28;20639;-87
2022/06/15 07:46:38;;;;;;;0.70;0.70;;;21.40;44.70;21.10;98356.00;;;;5075984;28;20199;-77
2022/06/15 07:51:54;;;;;;;0.90;0.90;;;;;21.30;98347.00;;;;5093681;28;20224;-79
2022/06/15 07:54:22;;;;;;;0.45;0.45;;;21.70;44.20;21.40;98348.00;;;;5093675;28;20281;-78
2022/06/15 07:56:52;;;;;;;0.70;0.70;;;21.80;45.00;21.40;98347.00;;;;5093647;28;20202;-81
2022/06/15 07:59:18;;;;;;;3.53;1.92;;;21.90;45.50;21.50;98353.00;;;;5075839;28;20570;-79
2022/06/15 08:01:47;;;;;;;0.80;0.80;;;21.90;44.40;21.50;98349.00;;;;5093527;28;20199;-83
2022/06/15 08:04:15;;;;;;;0.40;0.40;;;22.00;43.90;21.60;98343.00;;;;5076404;28;20531;-80
2022/06/15 08:06:45;;;;;;;4.25;0.80;;;22.00;43.40;21.60;98357.00;;;;5076479;28;20516;-78
2022/06/15 08:09:13;;;;;;;0.77;0.77;;;22.10;43.30;21.80;98362.00;;;;5093644;28;20614;-81
2022/06/15 08:12:11;;;;;;;0.77;0.77;;;22.20;43.50;21.80;98365.00;;;;5093564;28;20195;-78
2022/06/15 08:14:31;;;;;;;2.28;1.42;;;22.30;43.20;21.90;98357.00;;;;5093335;28;20198;-78
2022/06/15 08:16:59;;;;;;;1.10;1.10;;;22.30;41.60;22.00;98353.00;;;;5093349;28;20273;-79
2022/06/15 08:19:31;;;;;;;0.77;0.77;;;22.40;41.90;22.20;98360.00;;;;5093504;28;20262;-77
2022/06/15 08:21:58;;;;;;;1.08;0.93;;;;;22.30;98352.00;;;;5093184;28;20230;-78
2022/06/15 08:24:26;;;;;;;0.60;0.60;;;22.70;42.20;22.40;98354.00;;;;5093268;28;20203;-77
2022/06/15 08:26:56;;;;;;;1.17;1.10;;;22.80;42.40;22.50;98358.00;;;;5093158;28;20194;-76
2022/06/15 08:29:23;;;;;;;0.90;0.90;;;22.90;42.50;22.50;98355.00;;;;5093120;28;20639;-76
2022/06/15 08:31:49;;;;;;;0.88;0.88;;;22.90;41.30;22.60;98352.00;;;;5093482;28;20234;-79
2022/06/15 08:34:16;;;;;;;0.60;0.60;;;;;22.80;98357.00;;;;5096926;28;20531;-77
2022/06/15 08:36:45;;;;;;;0.60;0.60;;;23.10;39.70;22.70;98346.00;;;;5100056;28;20203;-78
2022/06/15 08:39:11;;;;;;;1.00;1.00;;;23.10;39.90;22.60;98354.00;;;;5104143;28;20218;-80
2022/06/15 08:41:48;;;;;;;0.65;0.65;;;23.10;42.00;22.80;98358.00;;;;5104527;28;20229;-82
2022/06/15 08:44:28;;;;;;;0.68;0.68;;;;;22.90;98358.00;;;;5087554;28;20297;-78
2022/06/15 08:47:02;;;;;;;1.00;1.00;;;;;23.00;98353.00;;;;5105407;28;20522;-78
2022/06/15 08:49:45;;;;;;;0.50;0.50;;;;;23.10;98354.00;;;;5095393;28;20226;-81
2022/06/15 08:52:16;;;;;;;0.60;0.60;;;;;23.10;98354.00;;;;5097373;28;20683;-75
2022/06/15 08:54:51;;;;;;;0.65;0.65;;;;;23.10;98355.00;;;;5097034;28;20222;-75
2022/06/15 08:57:26;;;;;;;0.98;0.98;;;;;23.20;98357.00;;;;5099664;28;20197;-76
2022/06/15 08:59:58;;;;;;;0.70;0.70;;;;;23.30;98362.00;;;;5106068;28;20206;-76
2022/06/15 09:02:35;;;;;;;0.98;0.93;;;;;23.30;98360.00;;;;5106328;28;20222;-75
2022/06/15 09:05:09;;;;;;;0.60;0.60;;;;;23.30;98362.00;;;;5104741;28;20212;-77
2022/06/15 09:07:58;;;;;;;0.50;0.50;;;;;23.40;98359.00;;;;5101102;28;20279;-75
2022/06/15 09:10:46;;;;;;;0.88;0.88;;;;;23.50;98358.00;;;;5098486;28;20534;-77
2022/06/15 09:13:29;;;;;;;0.55;0.55;;;;;23.50;98360.00;;;;5096786;28;20226;-78
2022/06/15 09:16:05;;;;;;;1.58;1.40;;;;;23.70;98364.00;;;;5096698;28;20210;-77
2022/06/15 09:18:36;;;;;;;1.33;1.13;;;;;23.80;98360.00;;;;5097109;28;20281;-76
2022/06/15 09:21:09;;;;;;;0.60;0.60;;;;;23.70;98365.00;;;;5096613;28;20214;-76
2022/06/15 09:23:42;;;;;;;0.47;0.47;;;;;23.80;98369.00;;;;5096941;28;20198;-77
2022/06/15 09:26:13;;;;;;;1.00;0.90;;;;;24.00;98368.00;;;;5096751;28;20676;-80
2022/06/15 09:28:45;;;;;;;0.70;0.70;;;;;24.30;98362.00;;;;5097182;28;20215;-79
2022/06/15 09:31:16;;;;;;;1.38;0.85;;;;;24.30;98362.00;;;;5118015;28;20217;-76
2022/06/15 09:33:46;;;;;;;0.50;0.50;;;;;24.20;98368.00;;;;5107324;28;20214;-77
2022/06/15 09:36:17;;;;;;;1.33;1.15;;;;;24.40;98368.00;;;;5099013;28;20221;-79
2022/06/15 09:38:44;;;;;;;1.17;1.17;;;;;24.50;98367.00;;;;5098740;28;20224;-77
2022/06/15 09:41:20;;;;;;;0.80;0.80;;;;;24.70;98364.00;;;;5098545;28;20638;-78
2022/06/15 09:43:58;;;;;;;0.93;0.93;;;;;24.60;98359.00;;;;5080977;28;20198;-76
2022/06/15 09:46:34;;;;;;;0.70;0.70;;;;;24.60;98359.00;;;;5098763;28;20222;-76
2022/06/15 09:49:20;;;;;;;0.70;0.70;;;;;24.80;98355.00;;;;5098981;28;20218;-78
2022/06/15 09:51:57;;;;;;;2.42;1.33;;;;;25.10;98362.00;;;;5098527;28;20187;-77
2022/06/15 09:54:34;;;;;;;0.40;0.40;;;;;25.10;98354.00;;;;5100578;28;20205;-76
2022/06/15 09:57:01;;;;;;;1.05;1.05;;;;;25.30;98356.00;;;;5099424;28;20278;-77
2022/06/15 09:59:33;;;;;;;0.52;0.52;;;;;25.20;98358.00;;;;5098289;28;20232;-76
2022/06/15 10:02:02;;;;;;;0.50;0.50;;;;;25.30;98359.00;;;;5097856;28;20210;-77
2022/06/15 10:04:33;;;;;;;0.80;0.80;;;;;25.50;98362.00;;;;5098685;28;20191;-77
2022/06/15 10:07:06;;;;;;;0.85;0.85;;;;;25.70;98363.00;;;;5097814;28;20680;-79
2022/06/15 10:09:38;;;;;;;1.20;0.80;;;;;26.00;98364.00;;;;5095112;28;20278;-79
2022/06/15 10:15:33;;;;;;;0.73;0.73;;;;;26.00;98362.00;;;;5095206;28;20220;-77
2022/06/15 10:18:19;;;;;;;0.60;0.60;;;;;26.00;98363.00;;;;5077286;28;20207;-77
2022/06/15 10:20:59;;;;;;;0.70;0.70;;;;;26.00;98362.00;;;;5095095;28;20198;-77
2022/06/15 10:23:49;;;;;;;0.52;0.52;;;;;26.10;98357.00;;;;5095197;28;20190;-77
2022/06/15 10:26:29;;;;;;;0.60;0.60;;;;;26.00;98365.00;;;;5092139;28;20685;-79
2022/06/15 10:28:57;;;;;;;0.40;0.40;;;;;26.30;98355.00;;;;5094887;28;20229;-75
2022/06/15 10:31:28;;;;;;;0.70;0.70;;;;;26.50;98367.00;;;;5094809;28;20250;-74
2022/06/15 10:33:57;;;;;;;0.50;0.50;;;;;26.70;98364.00;;;;5094825;28;20203;-76
2022/06/15 10:36:29;;;;;;;0.50;0.50;;;;;26.90;98359.00;;;;5094857;28;20198;-77
2022/06/15 10:39:02;;;;;;;0.75;0.73;;;;;27.20;98369.00;;;;5094691;28;20205;-77
2022/06/15 10:41:47;;;;;;;1.08;1.08;;;;;27.20;98360.00;;;;5094733;28;20267;-75
2022/06/15 10:44:22;;;;;;;0.50;0.50;;;;;27.10;98358.00;;;;5094547;28;20219;-76
2022/06/15 10:46:52;;;;;;;0.50;0.50;;;;;27.10;98357.00;;;;5094624;28;20247;-81
2022/06/15 10:49:21;;;;;;;0.73;0.73;;;;;26.90;98347.00;;;;5094337;28;20218;-76
2022/06/15 10:51:49;;;;;;;0.50;0.50;;;;;26.90;98359.00;;;;5094503;28;20199;-74
2022/06/15 10:54:30;;;;;;;0.63;0.63;;;;;27.00;98347.00;;;;5094543;28;20523;-76
2022/06/15 11:02:46;;;;;;;1.05;1.05;;;;;27.30;98345.00;;;;5094347;28;20251;-75
2022/06/15 11:05:17;;;;;;;0.50;0.50;;;;;27.50;98340.00;;;;5094362;28;20539;-75
2022/06/15 11:07:50;;;;;;;0.98;0.98;;;;;27.50;98341.00;;;;5094360;28;20206;-76
2022/06/15 11:10:31;;;;;;;0.45;0.45;;;;;27.60;98346.00;;;;5094323;28;20252;-76
2022/06/15 11:13:03;;;;;;;1.08;1.05;;;;;27.80;98333.00;;;;5093628;28;20209;-76
2022/06/15 11:18:30;;;;;;;0.55;0.55;;;;;28.10;98332.00;;;;5094242;28;20604;-76
2022/06/15 11:21:07;;;;;;;0.80;0.80;;;;;28.30;98329.00;;;;5094062;28;20792;-77
2022/06/15 11:23:45;;;;;;;0.65;0.65;;;;;28.30;98335.00;;;;5094056;28;20201;-75
2022/06/15 11:29:08;;;;;;;0.82;0.82;;;;;28.80;98320.00;;;;5093911;28;20241;-75
2022/06/15 11:31:37;;;;;;;0.90;0.90;;;;;29.00;98324.00;;;;5094035;28;20198;-73
2022/06/15 11:34:09;;;;;;;0.70;0.70;;;;;29.10;98322.00;;;;5093959;28;20232;-76
2022/06/15 11:36:46;;;;;;;0.88;0.88;;;;;29.20;98322.00;;;;5093879;28;20206;-77
2022/06/15 11:39:19;;;;;;;1.02;1.02;;;;;29.40;98320.00;;;;5093970;28;20206;-77
2022/06/15 11:41:50;;;;;;;1.00;1.00;;;;;29.60;98333.00;;;;5093847;28;20214;-77
2022/06/15 11:44:23;;;;;;;0.77;0.77;;;;;29.50;98317.00;;;;5093771;28;20228;-78
2022/06/15 11:47:02;;;;;;;0.60;0.60;;;;;29.40;98325.00;;;;5094007;28;20207;-77
2022/06/15 11:49:39;;;;;;;0.90;0.90;;;;;29.40;98324.00;;;;5075802;28;20234;-76
2022/06/15 11:52:22;;;;;;;0.60;0.60;;;;;29.50;98322.00;;;;5093757;28;20282;-76
2022/06/15 11:55:07;;;;;;;0.68;0.68;;;;;29.80;98326.00;;;;5093585;28;20241;-77